createdAt,value
2019-02-18T00:00:30.606Z,19.43
2019-02-18T00:02:59.244Z,19.80
2019-02-18T00:05:27.729Z,18.87
2019-02-18T00:07:56.317Z,18.47
2019-02-18T00:10:24.814Z,19.07
2019-02-18T00:12:53.776Z,19.13
2019-02-18T00:15:22.363Z,19.30
2019-02-18T00:17:50.836Z,19.07
2019-02-18T00:20:19.624Z,18.63
2019-02-18T00:22:48.118Z,18.57
2019-02-18T00:25:16.620Z,19.10
2019-02-18T00:27:45.175Z,19.03
2019-02-18T00:30:14.116Z,18.93
2019-02-18T00:32:42.594Z,20.23
2019-02-18T00:35:11.097Z,20.27
2019-02-18T00:37:39.577Z,20.17
2019-02-18T00:40:09.744Z,20.03
2019-02-18T00:42:38.236Z,19.30
2019-02-18T00:45:12.249Z,20.23
2019-02-18T00:47:40.722Z,19.07
2019-02-18T00:50:10.490Z,19.00
2019-02-18T00:52:38.965Z,19.80
2019-02-18T00:55:08.623Z,20.10
2019-02-18T00:57:37.161Z,19.40
2019-02-18T01:00:12.238Z,20.53
2019-02-18T01:02:40.821Z,19.97
2019-02-18T01:05:09.819Z,20.37
2019-02-18T01:07:38.388Z,18.87
2019-02-18T01:10:09.908Z,19.50
2019-02-18T01:12:38.423Z,19.90
2019-02-18T01:15:09.816Z,20.20
2019-02-18T01:17:38.370Z,19.80
2019-02-18T01:20:09.825Z,19.07
2019-02-18T01:22:38.334Z,20.13
2019-02-18T01:25:08.935Z,19.13
2019-02-18T01:27:37.474Z,19.47
2019-02-18T01:30:09.261Z,19.23
2019-02-18T01:32:37.755Z,19.80
2019-02-18T01:35:06.659Z,18.97
2019-02-18T01:37:44.827Z,18.50
2019-02-18T01:40:08.284Z,20.80
2019-02-18T01:42:36.812Z,19.37
2019-02-18T01:45:07.986Z,19.90
2019-02-18T01:47:36.435Z,20.23
2019-02-18T01:50:07.814Z,20.97
2019-02-18T01:52:36.319Z,20.90
2019-02-18T01:55:05.547Z,19.60
2019-02-18T01:57:34.037Z,20.50
2019-02-18T02:00:02.504Z,20.27
2019-02-18T02:02:30.997Z,20.10
2019-02-18T02:04:59.471Z,21.03
2019-02-18T02:07:28.054Z,21.33
2019-02-18T02:09:56.517Z,20.10
2019-02-18T02:12:25.242Z,19.80
2019-02-18T02:14:53.729Z,18.93
2019-02-18T02:17:22.241Z,19.90
2019-02-18T02:19:50.714Z,20.30
2019-02-18T02:22:19.195Z,20.03
2019-02-18T02:24:47.681Z,20.80
2019-02-18T02:27:16.164Z,20.67
2019-02-18T02:29:44.709Z,20.40
2019-02-18T02:32:13.192Z,20.63
2019-02-18T02:34:41.673Z,20.57
2019-02-18T02:37:10.150Z,20.43
2019-02-18T02:39:38.639Z,20.07
2019-02-18T02:42:07.115Z,20.63
2019-02-18T02:44:35.602Z,20.63
2019-02-18T02:47:04.080Z,20.37
2019-02-18T02:49:32.582Z,20.10
2019-02-18T02:52:01.042Z,19.20
2019-02-18T02:54:29.533Z,20.13
2019-02-18T02:56:58.002Z,20.40
2019-02-18T02:59:26.628Z,19.93
2019-02-18T03:01:55.109Z,19.27
2019-02-18T03:04:23.611Z,20.80
2019-02-18T03:06:52.090Z,19.83
2019-02-18T03:09:20.712Z,19.67
2019-02-18T03:11:49.193Z,20.47
2019-02-18T03:14:17.683Z,19.90
2019-02-18T03:16:46.165Z,19.63
2019-02-18T03:19:14.665Z,20.13
2019-02-18T03:21:43.137Z,20.33
2019-02-18T03:24:11.625Z,19.97
2019-02-18T03:26:40.105Z,19.30
2019-02-18T03:29:11.652Z,20.97
2019-02-18T03:31:40.123Z,20.00
2019-02-18T03:34:33.698Z,18.30
2019-02-18T03:37:02.146Z,19.37
2019-02-18T03:39:30.652Z,19.83
2019-02-18T03:41:58.308Z,20.00
2019-02-18T03:44:26.871Z,20.27
2019-02-18T03:46:55.378Z,19.73
2019-02-18T03:49:23.858Z,19.60
2019-02-18T03:51:52.363Z,20.53
2019-02-18T03:54:20.843Z,20.33
2019-02-18T03:56:49.348Z,20.30
2019-02-18T03:59:17.810Z,19.47
2019-02-18T04:01:46.313Z,19.43
2019-02-18T04:04:14.771Z,20.60
2019-02-18T04:06:43.279Z,19.27
2019-02-18T04:09:11.738Z,20.50
2019-02-18T04:11:40.242Z,19.03
2019-02-18T04:14:08.726Z,19.57
2019-02-18T04:16:37.226Z,19.97
2019-02-18T04:19:05.722Z,19.83
2019-02-18T04:21:34.204Z,19.03
2019-02-18T04:24:02.719Z,18.93
2019-02-18T04:26:31.247Z,19.60
2019-02-18T04:28:59.751Z,19.00
2019-02-18T04:31:28.234Z,20.07
2019-02-18T04:33:56.709Z,19.23
2019-02-18T04:36:25.193Z,21.00
2019-02-18T04:38:54.545Z,20.33
2019-02-18T04:41:23.178Z,20.03
2019-02-18T04:43:51.659Z,19.07
2019-02-18T04:46:20.185Z,19.73
2019-02-18T04:48:48.673Z,19.83
2019-02-18T04:51:17.188Z,21.00
2019-02-18T04:53:45.658Z,20.23
2019-02-18T04:56:14.142Z,18.80
2019-02-18T04:58:42.621Z,20.20
2019-02-18T05:01:11.103Z,19.40
2019-02-18T05:03:39.595Z,19.67
2019-02-18T05:06:08.079Z,19.43
2019-02-18T05:08:36.562Z,20.50
2019-02-18T05:11:05.030Z,19.90
2019-02-18T05:13:33.511Z,19.50
2019-02-18T05:16:01.979Z,19.83
2019-02-18T05:18:30.475Z,19.03
2019-02-18T05:20:58.955Z,18.80
2019-02-18T05:23:27.463Z,19.17
2019-02-18T05:25:55.943Z,20.07
2019-02-18T05:28:24.455Z,20.63
2019-02-18T05:30:52.938Z,20.00
2019-02-18T05:33:21.429Z,20.53
2019-02-18T05:35:49.918Z,21.77
2019-02-18T05:38:18.430Z,21.17
2019-02-18T05:40:46.888Z,20.67
2019-02-18T05:43:15.395Z,19.67
2019-02-18T05:45:43.851Z,20.47
2019-02-18T05:48:12.385Z,20.73
2019-02-18T05:50:40.884Z,20.50
2019-02-18T05:53:09.399Z,20.63
2019-02-18T05:55:37.868Z,19.00
2019-02-18T05:58:06.355Z,20.13
2019-02-18T06:00:34.843Z,21.00
2019-02-18T06:03:03.346Z,20.27
2019-02-18T06:05:31.819Z,20.93
2019-02-18T06:08:00.352Z,20.97
2019-02-18T06:10:28.833Z,19.77
2019-02-18T06:12:57.410Z,21.97
2019-02-18T06:15:25.823Z,21.27
2019-02-18T06:17:54.367Z,21.47
2019-02-18T06:20:22.862Z,22.73
2019-02-18T06:22:51.375Z,20.77
2019-02-18T06:25:19.865Z,21.60
2019-02-18T06:27:48.384Z,21.67
2019-02-18T06:30:16.839Z,20.23
2019-02-18T06:32:45.343Z,21.57
2019-02-18T06:35:13.843Z,21.80
2019-02-18T06:37:42.459Z,21.50
2019-02-18T06:40:10.941Z,21.67
2019-02-18T06:42:39.431Z,22.30
2019-02-18T06:45:28.245Z,21.90
2019-02-18T06:47:58.345Z,20.33
2019-02-18T06:50:26.789Z,22.40
2019-02-18T06:52:55.273Z,21.37
2019-02-18T06:55:23.755Z,21.97
2019-02-18T06:58:12.619Z,20.53
2019-02-18T07:00:45.175Z,21.53
2019-02-18T07:05:59.159Z,21.43
2019-02-18T07:08:31.730Z,23.40
2019-02-18T07:11:01.849Z,21.37
2019-02-18T07:13:30.329Z,22.47
2019-02-18T07:15:58.892Z,21.43
2019-02-18T07:18:27.490Z,20.40
2019-02-18T07:20:56.077Z,20.90
2019-02-18T07:23:24.566Z,21.43
2019-02-18T07:25:53.110Z,22.10
2019-02-18T07:28:21.596Z,22.83
2019-02-18T07:30:50.100Z,21.17
2019-02-18T07:33:18.591Z,19.60
2019-02-18T07:35:47.094Z,19.60
2019-02-18T07:38:15.557Z,20.60
2019-02-18T07:40:44.055Z,19.33
2019-02-18T07:43:12.530Z,20.30
2019-02-18T07:45:41.026Z,21.03
2019-02-18T07:48:09.503Z,19.03
2019-02-18T07:50:40.766Z,19.53
2019-02-18T07:53:09.227Z,21.40
2019-02-18T07:55:37.729Z,18.93
2019-02-18T07:58:06.192Z,18.07
2019-02-18T08:00:34.667Z,20.27
2019-02-18T08:03:03.140Z,18.87
2019-02-18T08:05:31.641Z,19.30
2019-02-18T08:08:00.107Z,19.43
2019-02-18T08:10:28.619Z,20.03
2019-02-18T08:12:57.074Z,17.73
2019-02-18T08:15:25.583Z,20.03
2019-02-18T08:17:54.042Z,18.67
2019-02-18T08:20:22.532Z,19.27
2019-02-18T08:22:51.002Z,19.87
2019-02-18T08:25:19.489Z,18.23
2019-02-18T08:27:47.958Z,30.97
2019-02-18T08:30:16.531Z,36.37
2019-02-18T08:32:44.997Z,23.93
2019-02-18T08:35:13.514Z,22.27
2019-02-18T08:37:42.030Z,24.57
2019-02-18T08:40:10.590Z,18.90
2019-02-18T08:42:39.065Z,17.67
2019-02-18T08:45:10.901Z,18.07
2019-02-18T08:47:39.391Z,16.50
2019-02-18T08:50:10.684Z,16.27
2019-02-18T08:52:39.209Z,16.07
2019-02-18T08:55:13.097Z,16.50
2019-02-18T08:57:41.602Z,15.60
2019-02-18T09:00:15.433Z,16.33
2019-02-18T09:02:43.927Z,16.50
2019-02-18T09:05:12.539Z,17.00
2019-02-18T09:07:41.182Z,16.53
2019-02-18T09:10:14.458Z,16.07
2019-02-18T09:12:42.959Z,16.57
2019-02-18T09:15:14.178Z,16.10
2019-02-18T09:17:42.474Z,15.53
2019-02-18T09:20:11.126Z,16.27
2019-02-18T09:22:59.553Z,16.53
2019-02-18T09:25:38.652Z,15.00
2019-02-18T09:28:07.132Z,15.20
2019-02-18T09:30:37.248Z,15.07
2019-02-18T09:33:05.778Z,15.63
2019-02-18T09:35:34.244Z,15.03
2019-02-18T09:38:02.753Z,14.83
2019-02-18T09:40:31.236Z,15.73
2019-02-18T09:42:59.726Z,15.57
2019-02-18T09:45:28.223Z,14.20
2019-02-18T09:47:57.066Z,14.50
2019-02-18T09:50:25.544Z,13.90
2019-02-18T09:52:54.059Z,14.07
2019-02-18T09:55:22.535Z,15.20
2019-02-18T09:57:51.038Z,14.63
2019-02-18T10:00:19.527Z,13.50
2019-02-18T10:02:48.020Z,13.73
2019-02-18T10:05:16.500Z,13.50
2019-02-18T10:07:46.042Z,13.47
2019-02-18T10:10:14.532Z,14.50
2019-02-18T10:12:43.054Z,14.00
2019-02-18T10:15:12.065Z,13.17
2019-02-18T10:17:40.552Z,12.83
2019-02-18T10:20:13.073Z,12.73
2019-02-18T10:22:41.570Z,13.03
2019-02-18T10:25:11.793Z,13.60
2019-02-18T10:27:40.312Z,13.50
2019-02-18T10:30:10.876Z,13.27
2019-02-18T10:32:39.383Z,13.57
2019-02-18T10:35:13.339Z,14.43
2019-02-18T10:37:41.845Z,14.50
2019-02-18T10:40:11.151Z,13.43
2019-02-18T10:42:39.661Z,14.27
2019-02-18T10:45:11.250Z,13.20
2019-02-18T10:47:39.738Z,13.43
2019-02-18T10:50:10.563Z,13.23
2019-02-18T10:52:39.064Z,13.20
2019-02-18T10:55:09.785Z,13.20
2019-02-18T10:57:38.674Z,13.20
2019-02-18T11:00:10.184Z,14.03
2019-02-18T11:02:38.680Z,14.07
2019-02-18T11:05:08.099Z,13.13
2019-02-18T11:07:36.596Z,13.33
2019-02-18T11:10:08.309Z,12.67
2019-02-18T11:12:36.801Z,13.47
2019-02-18T11:15:06.841Z,13.83
2019-02-18T11:17:38.916Z,13.60
2019-02-18T11:20:07.591Z,12.53
2019-02-18T11:22:36.098Z,13.87
2019-02-18T11:25:07.735Z,14.30
2019-02-18T11:27:36.240Z,13.70
2019-02-18T11:30:13.727Z,12.87
2019-02-18T11:32:42.248Z,13.20
2019-02-18T11:35:11.569Z,13.47
2019-02-18T11:37:40.084Z,13.20
2019-02-18T11:40:11.806Z,12.70
2019-02-18T11:42:40.358Z,13.20
2019-02-18T11:45:13.961Z,13.60
2019-02-18T11:47:42.523Z,13.67
2019-02-18T11:50:13.056Z,13.20
2019-02-18T11:52:41.556Z,13.03
2019-02-18T11:55:12.092Z,12.73
2019-02-18T11:57:40.942Z,13.13
2019-02-18T12:00:16.380Z,13.47
2019-02-18T12:02:45.006Z,12.33
2019-02-18T12:05:14.029Z,13.40
2019-02-18T12:07:42.759Z,12.73
2019-02-18T12:10:12.299Z,12.17
2019-02-18T12:12:41.224Z,12.97
2019-02-18T12:15:14.102Z,13.00
2019-02-18T12:17:42.607Z,13.10
2019-02-18T12:20:15.059Z,13.33
2019-02-18T12:22:43.549Z,12.90
2019-02-18T12:25:13.404Z,12.47
2019-02-18T12:27:42.216Z,12.93
2019-02-18T12:30:13.763Z,13.73
2019-02-18T12:32:42.245Z,13.57
2019-02-18T12:35:11.095Z,14.17
2019-02-18T12:37:39.780Z,12.77
2019-02-18T12:40:13.014Z,12.50
2019-02-18T12:42:42.595Z,14.27
2019-02-18T12:45:12.606Z,13.53
2019-02-18T12:47:41.346Z,13.33
2019-02-18T12:50:11.283Z,13.17
2019-02-18T12:52:39.810Z,13.20
2019-02-18T12:55:09.607Z,13.13
2019-02-18T12:57:40.174Z,12.60
2019-02-18T13:00:14.041Z,12.77
2019-02-18T13:02:44.627Z,12.43
2019-02-18T13:05:14.895Z,12.47
2019-02-18T13:07:43.434Z,12.57
2019-02-18T13:10:12.985Z,12.20
2019-02-18T13:12:41.741Z,12.80
2019-02-18T13:15:12.999Z,13.07
2019-02-18T13:17:42.817Z,13.50
2019-02-18T13:20:11.652Z,13.50
2019-02-18T13:22:40.264Z,12.90
2019-02-18T13:25:10.004Z,12.10
2019-02-18T13:27:38.524Z,12.77
2019-02-18T13:30:16.100Z,12.80
2019-02-18T13:32:44.689Z,12.37
2019-02-18T13:35:13.446Z,12.83
2019-02-18T13:37:41.921Z,12.17
2019-02-18T13:40:12.085Z,12.40
2019-02-18T13:42:40.556Z,11.80
2019-02-18T13:45:09.700Z,12.90
2019-02-18T13:47:38.190Z,12.40
2019-02-18T13:50:11.792Z,11.83
2019-02-18T13:52:40.290Z,12.47
2019-02-18T13:55:11.042Z,11.83
2019-02-18T13:57:40.156Z,12.00
2019-02-18T14:00:15.602Z,10.63
2019-02-18T14:02:44.080Z,11.77
2019-02-18T14:05:12.790Z,11.83
2019-02-18T14:07:41.276Z,11.70
2019-02-18T14:10:09.828Z,10.60
2019-02-18T14:12:38.685Z,12.23
2019-02-18T14:15:10.711Z,11.30
2019-02-18T14:17:39.201Z,12.27
2019-02-18T14:20:14.226Z,11.10
2019-02-18T14:22:42.887Z,11.13
2019-02-18T14:25:12.012Z,11.57
2019-02-18T14:27:40.496Z,10.63
2019-02-18T14:30:12.073Z,11.67
2019-02-18T14:32:40.551Z,11.80
2019-02-18T14:35:09.712Z,11.30
2019-02-18T14:37:38.207Z,11.27
2019-02-18T14:40:08.880Z,10.67
2019-02-18T14:42:37.358Z,10.83
2019-02-18T14:45:06.608Z,10.77
2019-02-18T14:47:35.113Z,12.07
2019-02-18T14:50:04.093Z,25.37
2019-02-18T14:52:32.570Z,15.63
2019-02-18T14:55:01.067Z,12.50
2019-02-18T14:57:29.731Z,12.43
2019-02-18T14:59:58.297Z,12.10
2019-02-18T15:02:28.285Z,11.93
2019-02-18T15:04:57.059Z,10.90
2019-02-18T15:07:25.622Z,12.60
2019-02-18T15:09:54.139Z,11.33
2019-02-18T15:12:23.183Z,11.27
2019-02-18T15:14:51.669Z,11.73
2019-02-18T15:17:20.188Z,12.20
2019-02-18T15:19:48.669Z,11.63
2019-02-18T15:22:17.197Z,11.27
2019-02-18T15:24:45.864Z,11.57
2019-02-18T15:27:14.743Z,10.97
2019-02-18T15:29:43.232Z,11.47
2019-02-18T15:32:11.745Z,11.80
2019-02-18T15:34:40.254Z,10.97
2019-02-18T15:37:08.757Z,11.30
2019-02-18T15:39:37.399Z,12.17
2019-02-18T15:42:06.321Z,10.90
2019-02-18T15:44:34.778Z,12.00
2019-02-18T15:47:03.306Z,11.17
2019-02-18T15:49:31.799Z,11.77
2019-02-18T15:52:00.376Z,13.97
2019-02-18T15:54:28.864Z,12.43
2019-02-18T15:56:57.365Z,11.93
2019-02-18T15:59:25.851Z,11.50
2019-02-18T16:01:54.350Z,11.53
2019-02-18T16:04:22.841Z,11.37
2019-02-18T16:06:51.342Z,12.13
2019-02-18T16:09:19.848Z,11.30
2019-02-18T16:11:48.336Z,11.93
2019-02-18T16:14:17.186Z,11.40
2019-02-18T16:16:45.702Z,10.97
2019-02-18T16:19:14.184Z,11.23
2019-02-18T16:21:42.698Z,11.33
2019-02-18T16:24:19.644Z,11.13
2019-02-18T16:26:41.419Z,11.20
2019-02-18T16:29:09.915Z,11.50
2019-02-18T16:31:38.479Z,11.93
2019-02-18T16:34:07.272Z,12.37
2019-02-18T16:36:35.798Z,12.13
2019-02-18T16:39:06.178Z,13.17
2019-02-18T16:41:36.218Z,13.03
2019-02-18T16:44:04.903Z,12.07
2019-02-18T16:46:33.844Z,12.43
2019-02-18T16:49:02.768Z,12.87
2019-02-18T16:51:31.290Z,12.67
2019-02-18T16:53:59.783Z,19.47
2019-02-18T16:56:28.267Z,13.30
2019-02-18T16:58:56.772Z,13.00
2019-02-18T17:01:25.255Z,13.33
2019-02-18T17:03:53.784Z,36.33
2019-02-18T17:06:22.263Z,89.60
2019-02-18T17:08:50.777Z,40.77
2019-02-18T17:11:20.025Z,21.90
2019-02-18T17:13:48.540Z,18.57
2019-02-18T17:16:17.430Z,19.00
2019-02-18T17:18:45.938Z,18.33
2019-02-18T17:21:14.425Z,14.97
2019-02-18T17:23:44.402Z,14.70
2019-02-18T17:26:12.867Z,13.90
2019-02-18T17:28:41.379Z,12.40
2019-02-18T17:31:10.334Z,12.97
2019-02-18T17:33:38.850Z,13.50
2019-02-18T17:36:07.328Z,12.90
2019-02-18T17:38:35.830Z,12.27
2019-02-18T17:41:04.372Z,13.00
2019-02-18T17:43:32.874Z,12.17
2019-02-18T17:46:01.357Z,12.30
2019-02-18T17:48:30.246Z,13.10
2019-02-18T17:50:58.762Z,12.93
2019-02-18T17:53:27.315Z,13.47
2019-02-18T17:55:55.820Z,13.87
2019-02-18T17:58:24.346Z,14.97
2019-02-18T18:00:54.468Z,15.27
2019-02-18T18:03:23.357Z,13.37
2019-02-18T18:05:51.870Z,13.73
2019-02-18T18:08:20.380Z,13.23
2019-02-18T18:10:48.937Z,13.60
2019-02-18T18:13:25.007Z,14.03
2019-02-18T18:15:47.729Z,13.57
2019-02-18T18:18:16.253Z,15.30
2019-02-18T18:20:44.727Z,14.60
2019-02-18T18:23:13.239Z,14.23
2019-02-18T18:25:41.723Z,14.37
2019-02-18T18:28:10.225Z,13.67
2019-02-18T18:30:38.758Z,15.13
2019-02-18T18:33:07.442Z,13.77
2019-02-18T18:35:36.087Z,14.60
2019-02-18T18:38:04.773Z,13.93
2019-02-18T18:40:33.255Z,13.73
2019-02-18T18:43:01.738Z,14.97
2019-02-18T18:45:30.218Z,14.70
2019-02-18T18:47:58.713Z,14.83
2019-02-18T18:50:27.565Z,13.17
2019-02-18T18:52:56.068Z,13.87
2019-02-18T18:55:24.547Z,15.33
2019-02-18T18:57:53.027Z,15.07
2019-02-18T19:00:26.838Z,15.07
2019-02-18T19:02:55.319Z,15.13
2019-02-18T19:05:24.056Z,15.33
2019-02-18T19:07:52.791Z,14.37
2019-02-18T19:10:21.355Z,14.27
2019-02-18T19:12:49.854Z,14.83
2019-02-18T19:15:18.909Z,14.63
2019-02-18T19:17:47.528Z,14.47
2019-02-18T19:20:16.200Z,15.23
2019-02-18T19:22:44.674Z,15.47
2019-02-18T19:25:13.838Z,15.63
2019-02-18T19:27:42.330Z,15.63
2019-02-18T19:30:16.968Z,16.40
2019-02-18T19:32:45.846Z,16.23
2019-02-18T19:35:14.350Z,14.97
2019-02-18T19:37:42.823Z,15.23
2019-02-18T19:40:13.485Z,15.60
2019-02-18T19:42:42.293Z,15.97
2019-02-18T19:45:19.379Z,15.13
2019-02-18T19:47:47.940Z,15.67
2019-02-18T19:50:18.207Z,15.37
2019-02-18T19:52:47.245Z,15.20
2019-02-18T19:55:16.049Z,15.40
2019-02-18T19:57:44.640Z,14.60
2019-02-18T20:00:18.965Z,15.53
2019-02-18T20:02:47.565Z,15.67
2019-02-18T20:05:17.699Z,16.07
2019-02-18T20:07:46.307Z,15.67
2019-02-18T20:10:15.198Z,15.33
2019-02-18T20:12:43.725Z,17.30
2019-02-18T20:15:14.843Z,15.03
2019-02-18T20:17:43.487Z,16.07
2019-02-18T20:20:13.900Z,15.63
2019-02-18T20:22:42.399Z,15.73
2019-02-18T20:25:10.949Z,15.47
2019-02-18T20:27:39.491Z,15.73
2019-02-18T20:30:15.738Z,15.70
2019-02-18T20:32:44.408Z,14.87
2019-02-18T20:35:13.433Z,15.83
2019-02-18T20:37:44.059Z,15.83
2019-02-18T20:40:13.679Z,15.80
2019-02-18T20:42:44.888Z,15.80
2019-02-18T20:45:14.981Z,14.73
2019-02-18T20:47:44.089Z,15.17
2019-02-18T20:50:14.396Z,15.23
2019-02-18T20:52:42.991Z,16.40
2019-02-18T20:55:14.027Z,14.63
2019-02-18T20:57:42.540Z,14.57
2019-02-18T21:00:32.860Z,15.83
2019-02-18T21:03:01.357Z,14.67
2019-02-18T21:05:29.869Z,15.40
2019-02-18T21:07:58.360Z,15.27
2019-02-18T21:10:26.887Z,15.70
2019-02-18T21:12:55.383Z,16.23
2019-02-18T21:15:23.931Z,15.17
2019-02-18T21:17:52.407Z,15.30
2019-02-18T21:20:20.929Z,16.30
2019-02-18T21:22:49.733Z,16.40
2019-02-18T21:25:18.220Z,15.63
2019-02-18T21:27:46.753Z,17.10
2019-02-18T21:30:18.611Z,15.53
2019-02-18T21:32:47.114Z,16.40
2019-02-18T21:35:15.705Z,15.97
2019-02-18T21:37:44.545Z,16.00
2019-02-18T21:40:13.273Z,16.47
2019-02-18T21:42:41.915Z,16.47
2019-02-18T21:45:15.390Z,17.23
2019-02-18T21:47:44.021Z,16.50
2019-02-18T21:50:12.854Z,16.33
2019-02-18T21:52:41.551Z,16.37
2019-02-18T21:55:11.699Z,16.23
2019-02-18T21:57:40.198Z,17.43
2019-02-18T22:00:13.440Z,17.30
2019-02-18T22:02:41.938Z,17.80
2019-02-18T22:05:10.443Z,17.10
2019-02-18T22:07:38.960Z,16.07
2019-02-18T22:10:09.209Z,17.37
2019-02-18T22:12:37.722Z,15.97
2019-02-18T22:15:08.172Z,16.63
2019-02-18T22:17:37.049Z,16.63
2019-02-18T22:20:08.489Z,16.57
2019-02-18T22:22:37.389Z,17.00
2019-02-18T22:25:08.817Z,17.17
2019-02-18T22:27:52.351Z,17.40
2019-02-18T22:30:20.873Z,16.77
2019-02-18T22:32:49.401Z,18.03
2019-02-18T22:35:18.075Z,16.93
2019-02-18T22:37:46.587Z,16.83
2019-02-18T22:40:22.838Z,16.63
2019-02-18T22:42:51.348Z,17.03
2019-02-18T22:45:19.854Z,17.37
2019-02-18T22:47:48.360Z,17.67
2019-02-18T22:50:17.310Z,17.50
2019-02-18T22:52:55.116Z,17.50
2019-02-18T22:55:23.600Z,17.27
2019-02-18T22:57:52.120Z,18.20
2019-02-18T23:00:43.388Z,17.13
2019-02-18T23:03:11.898Z,16.60
2019-02-18T23:05:40.461Z,17.07
2019-02-18T23:08:08.992Z,17.03
2019-02-18T23:10:37.503Z,17.77
2019-02-18T23:13:06.171Z,16.53
2019-02-18T23:15:35.119Z,17.50
2019-02-18T23:18:04.807Z,18.50
2019-02-18T23:20:33.307Z,17.13
2019-02-18T23:23:01.814Z,17.10
2019-02-18T23:25:30.341Z,18.03
2019-02-18T23:27:58.878Z,17.23
2019-02-18T23:30:27.341Z,16.73
2019-02-18T23:32:56.231Z,17.40
2019-02-18T23:35:24.774Z,17.47
2019-02-18T23:37:53.275Z,17.07
2019-02-18T23:40:21.802Z,17.43
2019-02-18T23:42:50.317Z,17.87
2019-02-18T23:45:18.820Z,17.50
2019-02-18T23:47:47.351Z,16.50
2019-02-18T23:50:15.853Z,17.63
2019-02-18T23:52:44.461Z,17.70
2019-02-18T23:55:13.191Z,17.43
2019-02-18T23:57:41.760Z,16.93
